sensor_id;sensor_type;location;lat;lon;timestamp;temperature;humidity
32522;DHT22;18963;51.504;5.316;2023-08-06T00:02:13;14.80;99.90
32522;DHT22;18963;51.504;5.316;2023-08-06T00:04:39;14.80;99.90
32522;DHT22;18963;51.504;5.316;2023-08-06T00:07:04;14.80;99.90
32522;DHT22;18963;51.504;5.316;2023-08-06T00:09:30;14.80;99.90
32522;DHT22;18963;51.504;5.316;2023-08-06T00:11:56;14.80;99.90
32522;DHT22;18963;51.504;5.316;2023-08-06T00:14:21;14.80;99.90
32522;DHT22;18963;51.504;5.316;2023-08-06T00:16:47;14.80;99.90
32522;DHT22;18963;51.504;5.316;2023-08-06T00:19:12;14.80;99.90
32522;DHT22;18963;51.504;5.316;2023-08-06T00:21:38;14.80;99.90
32522;DHT22;18963;51.504;5.316;2023-08-06T00:24:03;14.80;99.90
32522;DHT22;18963;51.504;5.316;2023-08-06T00:26:29;14.80;99.90
32522;DHT22;18963;51.504;5.316;2023-08-06T00:28:54;14.80;99.90
32522;DHT22;18963;51.504;5.316;2023-08-06T00:31:20;14.80;99.90
32522;DHT22;18963;51.504;5.316;2023-08-06T00:33:45;14.70;99.90
32522;DHT22;18963;51.504;5.316;2023-08-06T00:36:11;14.80;99.90
32522;DHT22;18963;51.504;5.316;2023-08-06T00:38:36;14.80;99.90
32522;DHT22;18963;51.504;5.316;2023-08-06T00:41:02;14.80;99.90
32522;DHT22;18963;51.504;5.316;2023-08-06T00:43:27;14.80;99.90
32522;DHT22;18963;51.504;5.316;2023-08-06T00:45:53;14.80;99.90
32522;DHT22;18963;51.504;5.316;2023-08-06T00:48:19;14.80;99.90
32522;DHT22;18963;51.504;5.316;2023-08-06T00:50:45;14.80;99.90
32522;DHT22;18963;51.504;5.316;2023-08-06T00:53:11;14.80;99.90
32522;DHT22;18963;51.504;5.316;2023-08-06T00:55:37;14.80;99.90
32522;DHT22;18963;51.504;5.316;2023-08-06T00:58:03;14.70;99.90
32522;DHT22;18963;51.504;5.316;2023-08-06T01:00:30;14.80;99.90
32522;DHT22;18963;51.504;5.316;2023-08-06T01:02:56;14.80;99.90
32522;DHT22;18963;51.504;5.316;2023-08-06T01:05:22;14.80;99.90
32522;DHT22;18963;51.504;5.316;2023-08-06T01:08:08;14.80;99.90
32522;DHT22;18963;51.504;5.316;2023-08-06T01:10:51;14.80;99.90
32522;DHT22;18963;51.504;5.316;2023-08-06T01:13:33;14.70;99.90
32522;DHT22;18963;51.504;5.316;2023-08-06T01:16:03;14.80;99.90
32522;DHT22;18963;51.504;5.316;2023-08-06T01:18:30;14.80;99.90
32522;DHT22;18963;51.504;5.316;2023-08-06T01:20:56;14.80;99.90
32522;DHT22;18963;51.504;5.316;2023-08-06T01:23:22;14.70;99.90
32522;DHT22;18963;51.504;5.316;2023-08-06T01:28:31;14.70;99.90
32522;DHT22;18963;51.504;5.316;2023-08-06T01:31:01;14.60;99.90
32522;DHT22;18963;51.504;5.316;2023-08-06T01:33:28;14.60;99.90
32522;DHT22;18963;51.504;5.316;2023-08-06T01:35:57;14.70;99.90
32522;DHT22;18963;51.504;5.316;2023-08-06T01:38:24;14.60;99.90
32522;DHT22;18963;51.504;5.316;2023-08-06T01:40:50;14.60;99.90
32522;DHT22;18963;51.504;5.316;2023-08-06T01:43:15;14.60;99.90
32522;DHT22;18963;51.504;5.316;2023-08-06T01:45:41;14.60;99.90
32522;DHT22;18963;51.504;5.316;2023-08-06T01:48:06;14.60;99.90
32522;DHT22;18963;51.504;5.316;2023-08-06T01:50:32;14.50;99.90
32522;DHT22;18963;51.504;5.316;2023-08-06T01:52:57;14.50;99.90
32522;DHT22;18963;51.504;5.316;2023-08-06T01:55:23;14.50;99.90
32522;DHT22;18963;51.504;5.316;2023-08-06T01:57:48;14.50;99.90
32522;DHT22;18963;51.504;5.316;2023-08-06T02:00:14;14.40;99.90
32522;DHT22;18963;51.504;5.316;2023-08-06T02:02:39;14.40;99.90
32522;DHT22;18963;51.504;5.316;2023-08-06T02:05:06;14.40;99.90
32522;DHT22;18963;51.504;5.316;2023-08-06T02:07:32;14.40;99.90
32522;DHT22;18963;51.504;5.316;2023-08-06T02:09:57;14.40;99.90
32522;DHT22;18963;51.504;5.316;2023-08-06T02:12:23;14.40;99.90
32522;DHT22;18963;51.504;5.316;2023-08-06T02:14:48;14.40;99.90
32522;DHT22;18963;51.504;5.316;2023-08-06T02:17:14;14.30;99.90
32522;DHT22;18963;51.504;5.316;2023-08-06T02:19:39;14.30;99.90
32522;DHT22;18963;51.504;5.316;2023-08-06T02:22:05;14.30;99.90
32522;DHT22;18963;51.504;5.316;2023-08-06T02:24:30;14.30;99.90
32522;DHT22;18963;51.504;5.316;2023-08-06T02:26:56;14.30;99.90
32522;DHT22;18963;51.504;5.316;2023-08-06T02:29:22;14.30;99.90
32522;DHT22;18963;51.504;5.316;2023-08-06T02:31:47;14.30;99.90
32522;DHT22;18963;51.504;5.316;2023-08-06T02:34:12;14.30;99.90
32522;DHT22;18963;51.504;5.316;2023-08-06T02:36:38;14.30;99.90
32522;DHT22;18963;51.504;5.316;2023-08-06T02:39:03;14.30;99.90
32522;DHT22;18963;51.504;5.316;2023-08-06T02:41:29;14.40;99.90
32522;DHT22;18963;51.504;5.316;2023-08-06T02:43:54;14.40;99.90
32522;DHT22;18963;51.504;5.316;2023-08-06T02:46:20;14.40;99.90
32522;DHT22;18963;51.504;5.316;2023-08-06T02:48:45;14.40;99.90
32522;DHT22;18963;51.504;5.316;2023-08-06T02:51:11;14.40;99.90
32522;DHT22;18963;51.504;5.316;2023-08-06T02:53:37;14.40;99.90
32522;DHT22;18963;51.504;5.316;2023-08-06T02:56:02;14.40;99.90
32522;DHT22;18963;51.504;5.316;2023-08-06T02:58:28;14.40;99.90
32522;DHT22;18963;51.504;5.316;2023-08-06T03:01:04;14.50;99.90
32522;DHT22;18963;51.504;5.316;2023-08-06T03:03:33;14.50;99.90
32522;DHT22;18963;51.504;5.316;2023-08-06T03:05:59;14.40;99.90
32522;DHT22;18963;51.504;5.316;2023-08-06T03:08:25;14.50;99.90
32522;DHT22;18963;51.504;5.316;2023-08-06T03:10:51;14.50;99.90
32522;DHT22;18963;51.504;5.316;2023-08-06T03:13:18;14.50;99.90
32522;DHT22;18963;51.504;5.316;2023-08-06T03:15:51;14.50;99.90
32522;DHT22;18963;51.504;5.316;2023-08-06T03:18:17;14.50;99.90
32522;DHT22;18963;51.504;5.316;2023-08-06T03:20:42;14.50;99.90
32522;DHT22;18963;51.504;5.316;2023-08-06T03:23:08;14.50;99.90
32522;DHT22;18963;51.504;5.316;2023-08-06T03:25:35;14.50;99.90
32522;DHT22;18963;51.504;5.316;2023-08-06T03:28:01;14.50;99.90
32522;DHT22;18963;51.504;5.316;2023-08-06T03:30:26;14.50;99.90
32522;DHT22;18963;51.504;5.316;2023-08-06T03:32:52;14.50;99.90
32522;DHT22;18963;51.504;5.316;2023-08-06T03:35:17;14.60;99.90
32522;DHT22;18963;51.504;5.316;2023-08-06T03:37:43;14.50;99.90
32522;DHT22;18963;51.504;5.316;2023-08-06T03:40:09;14.60;99.90
32522;DHT22;18963;51.504;5.316;2023-08-06T03:42:35;14.60;99.90
32522;DHT22;18963;51.504;5.316;2023-08-06T03:45:00;14.60;99.90
32522;DHT22;18963;51.504;5.316;2023-08-06T03:47:26;14.50;99.90
32522;DHT22;18963;51.504;5.316;2023-08-06T03:49:51;14.50;99.90
32522;DHT22;18963;51.504;5.316;2023-08-06T03:52:17;14.60;99.90
32522;DHT22;18963;51.504;5.316;2023-08-06T03:54:42;14.60;99.90
32522;DHT22;18963;51.504;5.316;2023-08-06T03:57:08;14.50;99.90
32522;DHT22;18963;51.504;5.316;2023-08-06T03:59:34;14.60;99.90
32522;DHT22;18963;51.504;5.316;2023-08-06T04:02:00;14.60;99.90
32522;DHT22;18963;51.504;5.316;2023-08-06T04:04:25;14.60;99.90
32522;DHT22;18963;51.504;5.316;2023-08-06T04:06:51;14.60;99.90
32522;DHT22;18963;51.504;5.316;2023-08-06T04:09:16;14.60;99.90
32522;DHT22;18963;51.504;5.316;2023-08-06T04:11:42;14.60;99.90
32522;DHT22;18963;51.504;5.316;2023-08-06T04:14:07;14.60;99.90
32522;DHT22;18963;51.504;5.316;2023-08-06T04:16:33;14.60;99.90
32522;DHT22;18963;51.504;5.316;2023-08-06T04:18:58;14.60;99.90
32522;DHT22;18963;51.504;5.316;2023-08-06T04:21:24;14.60;99.90
32522;DHT22;18963;51.504;5.316;2023-08-06T04:23:49;14.60;99.90
32522;DHT22;18963;51.504;5.316;2023-08-06T04:26:15;14.60;99.90
32522;DHT22;18963;51.504;5.316;2023-08-06T04:28:40;14.60;99.90
32522;DHT22;18963;51.504;5.316;2023-08-06T04:31:06;14.60;99.90
32522;DHT22;18963;51.504;5.316;2023-08-06T04:33:32;14.60;99.90
32522;DHT22;18963;51.504;5.316;2023-08-06T04:35:57;14.60;99.90
32522;DHT22;18963;51.504;5.316;2023-08-06T04:38:23;14.60;99.90
32522;DHT22;18963;51.504;5.316;2023-08-06T04:40:50;14.60;99.90
32522;DHT22;18963;51.504;5.316;2023-08-06T04:43:16;14.50;99.90
32522;DHT22;18963;51.504;5.316;2023-08-06T04:45:54;14.60;99.90
32522;DHT22;18963;51.504;5.316;2023-08-06T04:48:19;14.60;99.90
32522;DHT22;18963;51.504;5.316;2023-08-06T04:50:46;14.50;99.90
32522;DHT22;18963;51.504;5.316;2023-08-06T04:53:12;14.60;99.90
32522;DHT22;18963;51.504;5.316;2023-08-06T04:55:38;14.60;99.90
32522;DHT22;18963;51.504;5.316;2023-08-06T04:58:04;14.60;99.90
32522;DHT22;18963;51.504;5.316;2023-08-06T05:00:29;14.60;99.90
32522;DHT22;18963;51.504;5.316;2023-08-06T05:02:55;14.60;99.90
32522;DHT22;18963;51.504;5.316;2023-08-06T05:05:20;14.70;99.90
32522;DHT22;18963;51.504;5.316;2023-08-06T05:07:49;14.70;99.90
32522;DHT22;18963;51.504;5.316;2023-08-06T05:10:15;14.70;99.90
32522;DHT22;18963;51.504;5.316;2023-08-06T05:12:40;14.80;99.90
32522;DHT22;18963;51.504;5.316;2023-08-06T05:15:06;14.80;99.90
32522;DHT22;18963;51.504;5.316;2023-08-06T05:17:32;14.90;99.90
32522;DHT22;18963;51.504;5.316;2023-08-06T05:19:57;14.90;99.90
32522;DHT22;18963;51.504;5.316;2023-08-06T05:22:23;15.00;99.90
32522;DHT22;18963;51.504;5.316;2023-08-06T05:24:48;15.00;99.90
32522;DHT22;18963;51.504;5.316;2023-08-06T05:27:14;15.00;99.90
32522;DHT22;18963;51.504;5.316;2023-08-06T05:29:40;15.10;99.90
32522;DHT22;18963;51.504;5.316;2023-08-06T05:32:05;15.10;99.90
32522;DHT22;18963;51.504;5.316;2023-08-06T05:34:31;15.10;99.90
32522;DHT22;18963;51.504;5.316;2023-08-06T05:36:56;15.10;99.90
32522;DHT22;18963;51.504;5.316;2023-08-06T05:39:22;15.20;99.90
32522;DHT22;18963;51.504;5.316;2023-08-06T05:41:47;15.20;99.90
32522;DHT22;18963;51.504;5.316;2023-08-06T05:44:13;15.20;99.90
32522;DHT22;18963;51.504;5.316;2023-08-06T05:46:39;15.30;99.90
32522;DHT22;18963;51.504;5.316;2023-08-06T05:49:04;15.30;99.90
32522;DHT22;18963;51.504;5.316;2023-08-06T05:51:30;15.40;99.90
32522;DHT22;18963;51.504;5.316;2023-08-06T05:53:56;15.40;99.90
32522;DHT22;18963;51.504;5.316;2023-08-06T05:56:21;15.40;99.90
32522;DHT22;18963;51.504;5.316;2023-08-06T05:58:47;15.40;99.90
32522;DHT22;18963;51.504;5.316;2023-08-06T06:01:13;15.40;99.90
32522;DHT22;18963;51.504;5.316;2023-08-06T06:03:38;15.40;99.90
32522;DHT22;18963;51.504;5.316;2023-08-06T06:06:04;15.40;99.90
32522;DHT22;18963;51.504;5.316;2023-08-06T06:08:30;15.50;99.90
32522;DHT22;18963;51.504;5.316;2023-08-06T06:10:55;15.50;99.90
32522;DHT22;18963;51.504;5.316;2023-08-06T06:13:21;15.50;99.90
32522;DHT22;18963;51.504;5.316;2023-08-06T06:15:47;15.50;99.90
32522;DHT22;18963;51.504;5.316;2023-08-06T06:18:13;15.40;99.90
32522;DHT22;18963;51.504;5.316;2023-08-06T06:20:38;15.40;99.90
32522;DHT22;18963;51.504;5.316;2023-08-06T06:23:04;15.40;99.90
32522;DHT22;18963;51.504;5.316;2023-08-06T06:25:29;15.40;99.90
32522;DHT22;18963;51.504;5.316;2023-08-06T06:27:55;15.40;99.90
32522;DHT22;18963;51.504;5.316;2023-08-06T06:30:21;15.20;99.90
32522;DHT22;18963;51.504;5.316;2023-08-06T06:32:47;15.10;99.90
32522;DHT22;18963;51.504;5.316;2023-08-06T06:35:12;14.90;99.90
32522;DHT22;18963;51.504;5.316;2023-08-06T06:37:38;14.70;99.90
32522;DHT22;18963;51.504;5.316;2023-08-06T06:40:04;14.50;99.90
32522;DHT22;18963;51.504;5.316;2023-08-06T06:42:29;14.40;99.90
32522;DHT22;18963;51.504;5.316;2023-08-06T06:44:55;14.30;99.90
32522;DHT22;18963;51.504;5.316;2023-08-06T06:47:20;14.20;99.90
32522;DHT22;18963;51.504;5.316;2023-08-06T06:49:46;14.10;99.90
32522;DHT22;18963;51.504;5.316;2023-08-06T06:52:11;14.00;99.90
32522;DHT22;18963;51.504;5.316;2023-08-06T06:54:37;13.90;99.90
32522;DHT22;18963;51.504;5.316;2023-08-06T06:57:03;13.80;99.90
32522;DHT22;18963;51.504;5.316;2023-08-06T06:59:28;13.80;99.90
32522;DHT22;18963;51.504;5.316;2023-08-06T07:01:54;13.70;99.90
32522;DHT22;18963;51.504;5.316;2023-08-06T07:04:19;13.70;99.90
32522;DHT22;18963;51.504;5.316;2023-08-06T07:06:45;13.60;99.90
32522;DHT22;18963;51.504;5.316;2023-08-06T07:09:10;13.60;99.90
32522;DHT22;18963;51.504;5.316;2023-08-06T07:11:36;13.50;99.90
32522;DHT22;18963;51.504;5.316;2023-08-06T07:14:01;13.50;99.90
32522;DHT22;18963;51.504;5.316;2023-08-06T07:16:27;13.50;99.90
32522;DHT22;18963;51.504;5.316;2023-08-06T07:18:54;13.50;99.90
32522;DHT22;18963;51.504;5.316;2023-08-06T07:21:20;13.50;99.90
32522;DHT22;18963;51.504;5.316;2023-08-06T07:23:45;13.50;99.90
32522;DHT22;18963;51.504;5.316;2023-08-06T07:26:11;13.50;99.90
32522;DHT22;18963;51.504;5.316;2023-08-06T07:28:37;13.60;99.90
32522;DHT22;18963;51.504;5.316;2023-08-06T07:31:03;13.60;99.90
32522;DHT22;18963;51.504;5.316;2023-08-06T07:33:29;13.60;99.90
32522;DHT22;18963;51.504;5.316;2023-08-06T07:35:54;13.70;99.90
32522;DHT22;18963;51.504;5.316;2023-08-06T07:38:20;13.70;99.90
32522;DHT22;18963;51.504;5.316;2023-08-06T07:40:46;13.70;99.90
32522;DHT22;18963;51.504;5.316;2023-08-06T07:43:12;13.80;99.90
32522;DHT22;18963;51.504;5.316;2023-08-06T07:45:37;13.80;99.90
32522;DHT22;18963;51.504;5.316;2023-08-06T07:48:04;13.90;99.90
32522;DHT22;18963;51.504;5.316;2023-08-06T07:50:29;13.90;99.90
32522;DHT22;18963;51.504;5.316;2023-08-06T07:52:55;13.90;99.90
32522;DHT22;18963;51.504;5.316;2023-08-06T07:55:21;14.00;99.90
32522;DHT22;18963;51.504;5.316;2023-08-06T07:57:46;14.00;99.90
32522;DHT22;18963;51.504;5.316;2023-08-06T08:00:12;14.00;99.90
32522;DHT22;18963;51.504;5.316;2023-08-06T08:02:37;14.00;99.90
32522;DHT22;18963;51.504;5.316;2023-08-06T08:05:03;14.10;99.90
32522;DHT22;18963;51.504;5.316;2023-08-06T08:07:28;14.10;99.90
32522;DHT22;18963;51.504;5.316;2023-08-06T08:09:56;14.10;99.90
32522;DHT22;18963;51.504;5.316;2023-08-06T08:12:22;14.10;99.90
32522;DHT22;18963;51.504;5.316;2023-08-06T08:14:47;14.10;99.90
32522;DHT22;18963;51.504;5.316;2023-08-06T08:17:13;14.10;99.90
32522;DHT22;18963;51.504;5.316;2023-08-06T08:19:40;14.10;99.90
32522;DHT22;18963;51.504;5.316;2023-08-06T08:22:05;14.10;99.90
32522;DHT22;18963;51.504;5.316;2023-08-06T08:24:31;14.10;99.90
32522;DHT22;18963;51.504;5.316;2023-08-06T08:26:57;14.10;99.90
32522;DHT22;18963;51.504;5.316;2023-08-06T08:29:22;14.00;99.90
32522;DHT22;18963;51.504;5.316;2023-08-06T08:31:48;14.00;99.90
32522;DHT22;18963;51.504;5.316;2023-08-06T08:34:16;14.00;99.90
32522;DHT22;18963;51.504;5.316;2023-08-06T08:36:42;14.00;99.90
32522;DHT22;18963;51.504;5.316;2023-08-06T08:39:08;14.00;99.90
32522;DHT22;18963;51.504;5.316;2023-08-06T08:41:36;13.90;99.90
32522;DHT22;18963;51.504;5.316;2023-08-06T08:44:02;13.90;99.90
32522;DHT22;18963;51.504;5.316;2023-08-06T08:46:29;13.90;99.90
32522;DHT22;18963;51.504;5.316;2023-08-06T08:48:56;13.90;99.90
32522;DHT22;18963;51.504;5.316;2023-08-06T08:51:24;13.90;99.90
32522;DHT22;18963;51.504;5.316;2023-08-06T08:53:53;13.90;99.90
32522;DHT22;18963;51.504;5.316;2023-08-06T08:56:20;13.90;99.90
32522;DHT22;18963;51.504;5.316;2023-08-06T08:58:46;13.90;99.90
32522;DHT22;18963;51.504;5.316;2023-08-06T09:01:12;13.90;99.90
32522;DHT22;18963;51.504;5.316;2023-08-06T09:03:39;14.00;99.90
32522;DHT22;18963;51.504;5.316;2023-08-06T09:06:04;13.90;99.90
32522;DHT22;18963;51.504;5.316;2023-08-06T09:08:36;14.00;99.90
32522;DHT22;18963;51.504;5.316;2023-08-06T09:11:05;14.00;99.90
32522;DHT22;18963;51.504;5.316;2023-08-06T09:13:36;14.00;99.90
32522;DHT22;18963;51.504;5.316;2023-08-06T09:16:02;14.00;99.90
32522;DHT22;18963;51.504;5.316;2023-08-06T09:18:29;14.10;99.90
32522;DHT22;18963;51.504;5.316;2023-08-06T09:20:56;14.10;99.90
32522;DHT22;18963;51.504;5.316;2023-08-06T09:23:31;14.10;99.90
32522;DHT22;18963;51.504;5.316;2023-08-06T09:26:00;14.20;99.90
32522;DHT22;18963;51.504;5.316;2023-08-06T09:28:37;14.20;99.90
32522;DHT22;18963;51.504;5.316;2023-08-06T09:31:09;14.20;99.90
32522;DHT22;18963;51.504;5.316;2023-08-06T09:33:36;14.20;99.90
32522;DHT22;18963;51.504;5.316;2023-08-06T09:36:12;14.30;99.90
32522;DHT22;18963;51.504;5.316;2023-08-06T09:38:38;14.30;99.90
32522;DHT22;18963;51.504;5.316;2023-08-06T09:41:05;14.30;99.90
32522;DHT22;18963;51.504;5.316;2023-08-06T09:43:39;14.30;99.90
32522;DHT22;18963;51.504;5.316;2023-08-06T09:46:11;14.30;99.90
32522;DHT22;18963;51.504;5.316;2023-08-06T09:48:38;14.40;99.90
32522;DHT22;18963;51.504;5.316;2023-08-06T09:51:05;14.40;99.90
32522;DHT22;18963;51.504;5.316;2023-08-06T09:53:33;14.40;99.90
32522;DHT22;18963;51.504;5.316;2023-08-06T09:56:00;14.50;99.90
32522;DHT22;18963;51.504;5.316;2023-08-06T09:58:26;14.50;99.90
32522;DHT22;18963;51.504;5.316;2023-08-06T10:00:52;14.50;99.90
32522;DHT22;18963;51.504;5.316;2023-08-06T10:03:18;14.50;99.90
32522;DHT22;18963;51.504;5.316;2023-08-06T10:05:44;14.50;99.90
32522;DHT22;18963;51.504;5.316;2023-08-06T10:08:10;14.50;99.90
32522;DHT22;18963;51.504;5.316;2023-08-06T10:10:36;14.50;99.90
32522;DHT22;18963;51.504;5.316;2023-08-06T10:13:03;14.40;99.90
32522;DHT22;18963;51.504;5.316;2023-08-06T10:15:31;14.40;99.90
32522;DHT22;18963;51.504;5.316;2023-08-06T10:17:59;14.40;99.90
32522;DHT22;18963;51.504;5.316;2023-08-06T10:20:25;14.50;99.90
32522;DHT22;18963;51.504;5.316;2023-08-06T10:23:04;14.50;99.90
32522;DHT22;18963;51.504;5.316;2023-08-06T10:25:32;14.50;99.90
32522;DHT22;18963;51.504;5.316;2023-08-06T10:28:06;14.60;99.90
32522;DHT22;18963;51.504;5.316;2023-08-06T10:30:33;14.60;99.90
32522;DHT22;18963;51.504;5.316;2023-08-06T10:33:01;14.60;99.90
32522;DHT22;18963;51.504;5.316;2023-08-06T10:35:36;14.70;99.90
32522;DHT22;18963;51.504;5.316;2023-08-06T10:40:32;14.80;99.90
32522;DHT22;18963;51.504;5.316;2023-08-06T10:43:02;14.80;99.90
32522;DHT22;18963;51.504;5.316;2023-08-06T10:45:28;14.80;99.90
32522;DHT22;18963;51.504;5.316;2023-08-06T10:47:57;14.90;99.90
32522;DHT22;18963;51.504;5.316;2023-08-06T10:50:24;15.00;99.90
32522;DHT22;18963;51.504;5.316;2023-08-06T10:52:49;15.00;99.90
32522;DHT22;18963;51.504;5.316;2023-08-06T10:55:29;15.10;99.90
32522;DHT22;18963;51.504;5.316;2023-08-06T10:57:55;15.20;99.90
32522;DHT22;18963;51.504;5.316;2023-08-06T11:00:22;15.20;99.90
32522;DHT22;18963;51.504;5.316;2023-08-06T11:02:49;15.20;99.90
32522;DHT22;18963;51.504;5.316;2023-08-06T11:05:15;15.30;99.90
32522;DHT22;18963;51.504;5.316;2023-08-06T11:07:41;15.30;99.90
32522;DHT22;18963;51.504;5.316;2023-08-06T11:10:08;15.30;99.90
32522;DHT22;18963;51.504;5.316;2023-08-06T11:12:34;15.30;99.90
32522;DHT22;18963;51.504;5.316;2023-08-06T11:15:00;15.20;99.90
32522;DHT22;18963;51.504;5.316;2023-08-06T11:17:30;15.20;99.90
32522;DHT22;18963;51.504;5.316;2023-08-06T11:19:58;15.20;99.90
32522;DHT22;18963;51.504;5.316;2023-08-06T11:22:24;15.30;99.90
32522;DHT22;18963;51.504;5.316;2023-08-06T11:24:50;15.20;99.90
32522;DHT22;18963;51.504;5.316;2023-08-06T11:27:17;15.20;99.90
32522;DHT22;18963;51.504;5.316;2023-08-06T11:29:45;15.30;99.90
32522;DHT22;18963;51.504;5.316;2023-08-06T11:32:11;15.30;99.90
32522;DHT22;18963;51.504;5.316;2023-08-06T11:34:38;15.30;99.90
32522;DHT22;18963;51.504;5.316;2023-08-06T11:37:05;15.30;99.90
32522;DHT22;18963;51.504;5.316;2023-08-06T11:39:35;15.40;99.90
32522;DHT22;18963;51.504;5.316;2023-08-06T11:42:03;15.50;99.90
32522;DHT22;18963;51.504;5.316;2023-08-06T11:44:36;15.50;99.90
32522;DHT22;18963;51.504;5.316;2023-08-06T11:47:03;15.60;99.90
32522;DHT22;18963;51.504;5.316;2023-08-06T11:49:46;15.70;99.90
32522;DHT22;18963;51.504;5.316;2023-08-06T11:52:17;15.80;99.90
32522;DHT22;18963;51.504;5.316;2023-08-06T11:54:44;15.80;99.90
32522;DHT22;18963;51.504;5.316;2023-08-06T11:57:11;15.80;99.90
32522;DHT22;18963;51.504;5.316;2023-08-06T11:59:37;15.80;99.90
32522;DHT22;18963;51.504;5.316;2023-08-06T12:02:04;15.80;99.90
32522;DHT22;18963;51.504;5.316;2023-08-06T12:04:31;15.80;99.90
32522;DHT22;18963;51.504;5.316;2023-08-06T12:07:07;15.80;99.90
32522;DHT22;18963;51.504;5.316;2023-08-06T12:09:33;15.80;99.90
32522;DHT22;18963;51.504;5.316;2023-08-06T12:11:59;15.70;99.90
32522;DHT22;18963;51.504;5.316;2023-08-06T12:14:24;15.70;99.90
32522;DHT22;18963;51.504;5.316;2023-08-06T12:16:50;15.70;99.90
32522;DHT22;18963;51.504;5.316;2023-08-06T12:19:15;15.70;99.90
32522;DHT22;18963;51.504;5.316;2023-08-06T12:21:41;15.70;99.90
32522;DHT22;18963;51.504;5.316;2023-08-06T12:24:06;15.80;99.90
32522;DHT22;18963;51.504;5.316;2023-08-06T12:26:33;15.80;99.90
32522;DHT22;18963;51.504;5.316;2023-08-06T12:28:58;15.90;99.90
32522;DHT22;18963;51.504;5.316;2023-08-06T12:31:24;15.90;99.90
32522;DHT22;18963;51.504;5.316;2023-08-06T12:33:49;16.00;99.90
32522;DHT22;18963;51.504;5.316;2023-08-06T12:36:15;16.10;99.90
32522;DHT22;18963;51.504;5.316;2023-08-06T12:38:40;16.20;99.90
32522;DHT22;18963;51.504;5.316;2023-08-06T12:41:05;16.20;99.90
32522;DHT22;18963;51.504;5.316;2023-08-06T12:43:31;16.30;99.90
32522;DHT22;18963;51.504;5.316;2023-08-06T12:45:56;16.40;99.90
32522;DHT22;18963;51.504;5.316;2023-08-06T12:48:22;16.50;99.90
32522;DHT22;18963;51.504;5.316;2023-08-06T12:50:47;16.50;99.90
32522;DHT22;18963;51.504;5.316;2023-08-06T12:53:14;16.60;99.90
32522;DHT22;18963;51.504;5.316;2023-08-06T12:55:41;16.70;99.90
32522;DHT22;18963;51.504;5.316;2023-08-06T12:58:06;16.80;99.90
32522;DHT22;18963;51.504;5.316;2023-08-06T13:00:32;16.90;99.90
32522;DHT22;18963;51.504;5.316;2023-08-06T13:02:57;16.90;99.90
32522;DHT22;18963;51.504;5.316;2023-08-06T13:05:23;17.00;99.90
32522;DHT22;18963;51.504;5.316;2023-08-06T13:07:49;17.10;99.90
32522;DHT22;18963;51.504;5.316;2023-08-06T13:10:14;17.20;99.90
32522;DHT22;18963;51.504;5.316;2023-08-06T13:12:40;17.30;99.90
32522;DHT22;18963;51.504;5.316;2023-08-06T13:15:06;17.40;99.90
32522;DHT22;18963;51.504;5.316;2023-08-06T13:17:32;17.50;99.90
32522;DHT22;18963;51.504;5.316;2023-08-06T13:19:58;17.60;99.90
32522;DHT22;18963;51.504;5.316;2023-08-06T13:22:24;17.80;99.90
32522;DHT22;18963;51.504;5.316;2023-08-06T13:24:49;17.90;99.90
32522;DHT22;18963;51.504;5.316;2023-08-06T13:27:15;17.90;99.90
32522;DHT22;18963;51.504;5.316;2023-08-06T13:29:40;18.00;99.90
32522;DHT22;18963;51.504;5.316;2023-08-06T13:32:06;18.00;99.90
32522;DHT22;18963;51.504;5.316;2023-08-06T13:34:31;18.00;99.90
32522;DHT22;18963;51.504;5.316;2023-08-06T13:36:57;17.90;99.90
32522;DHT22;18963;51.504;5.316;2023-08-06T13:39:22;17.90;99.90
32522;DHT22;18963;51.504;5.316;2023-08-06T13:41:48;17.70;99.90
32522;DHT22;18963;51.504;5.316;2023-08-06T13:44:13;17.60;99.90
32522;DHT22;18963;51.504;5.316;2023-08-06T13:46:40;17.40;99.90
32522;DHT22;18963;51.504;5.316;2023-08-06T13:49:06;17.30;99.90
32522;DHT22;18963;51.504;5.316;2023-08-06T13:51:32;17.10;99.90
32522;DHT22;18963;51.504;5.316;2023-08-06T13:53:59;17.10;99.90
32522;DHT22;18963;51.504;5.316;2023-08-06T13:56:25;17.00;99.90
32522;DHT22;18963;51.504;5.316;2023-08-06T13:58:50;17.00;99.90
32522;DHT22;18963;51.504;5.316;2023-08-06T14:01:17;17.10;99.90
32522;DHT22;18963;51.504;5.316;2023-08-06T14:03:44;17.10;99.90
32522;DHT22;18963;51.504;5.316;2023-08-06T14:06:10;17.10;99.90
32522;DHT22;18963;51.504;5.316;2023-08-06T14:08:35;17.20;99.90
32522;DHT22;18963;51.504;5.316;2023-08-06T14:11:01;17.30;99.90
32522;DHT22;18963;51.504;5.316;2023-08-06T14:13:26;17.40;99.90
32522;DHT22;18963;51.504;5.316;2023-08-06T14:15:52;17.50;99.90
32522;DHT22;18963;51.504;5.316;2023-08-06T14:18:17;17.50;99.90
32522;DHT22;18963;51.504;5.316;2023-08-06T14:20:43;17.40;99.90
32522;DHT22;18963;51.504;5.316;2023-08-06T14:23:09;17.40;99.90
32522;DHT22;18963;51.504;5.316;2023-08-06T14:25:35;17.40;99.90
32522;DHT22;18963;51.504;5.316;2023-08-06T14:28:01;17.40;99.90
32522;DHT22;18963;51.504;5.316;2023-08-06T14:30:26;17.40;99.90
32522;DHT22;18963;51.504;5.316;2023-08-06T14:32:52;17.30;99.90
32522;DHT22;18963;51.504;5.316;2023-08-06T14:35:17;17.20;99.90
32522;DHT22;18963;51.504;5.316;2023-08-06T14:37:43;17.10;99.90
32522;DHT22;18963;51.504;5.316;2023-08-06T14:40:11;17.00;99.90
32522;DHT22;18963;51.504;5.316;2023-08-06T14:42:36;16.80;99.90
32522;DHT22;18963;51.504;5.316;2023-08-06T14:45:02;16.70;99.90
32522;DHT22;18963;51.504;5.316;2023-08-06T14:47:29;16.60;99.90
32522;DHT22;18963;51.504;5.316;2023-08-06T14:49:54;16.50;99.90
32522;DHT22;18963;51.504;5.316;2023-08-06T14:52:20;16.40;99.90
32522;DHT22;18963;51.504;5.316;2023-08-06T14:54:45;16.30;99.90
32522;DHT22;18963;51.504;5.316;2023-08-06T14:57:11;16.20;99.90
32522;DHT22;18963;51.504;5.316;2023-08-06T14:59:38;16.00;99.90
32522;DHT22;18963;51.504;5.316;2023-08-06T15:02:04;15.70;99.90
32522;DHT22;18963;51.504;5.316;2023-08-06T15:04:30;15.50;99.90
32522;DHT22;18963;51.504;5.316;2023-08-06T15:06:55;15.30;99.90
32522;DHT22;18963;51.504;5.316;2023-08-06T15:09:21;15.10;99.90
32522;DHT22;18963;51.504;5.316;2023-08-06T15:11:47;14.90;99.90
32522;DHT22;18963;51.504;5.316;2023-08-06T15:14:13;14.60;99.90
32522;DHT22;18963;51.504;5.316;2023-08-06T15:16:39;14.50;99.90
32522;DHT22;18963;51.504;5.316;2023-08-06T15:19:05;14.50;99.90
32522;DHT22;18963;51.504;5.316;2023-08-06T15:21:30;14.50;99.90
32522;DHT22;18963;51.504;5.316;2023-08-06T15:23:56;14.50;99.90
32522;DHT22;18963;51.504;5.316;2023-08-06T15:26:21;14.50;99.90
32522;DHT22;18963;51.504;5.316;2023-08-06T15:28:47;14.50;99.90
32522;DHT22;18963;51.504;5.316;2023-08-06T15:31:13;14.50;99.90